Uvalde Research's Hourly Summary for Wednesday, May 18, 2022
Hour Temp
(f)
RH
(%)
Solar Rad.
(MJ/m2)
Rainfall
(in)
Wind
(mph)
Battery
(volts)
5/18/2022 12:00 AM 80 61 0 0 2.86 12.56
5/18/2022 1:00 AM 78 65 0 0 2.99 12.55
5/18/2022 2:00 AM 76 69 0 0 3.19 12.53
5/18/2022 3:00 AM 75 74 0 0 2.65 12.52
5/18/2022 4:00 AM 74 76 0 0 4.62 12.5
5/18/2022 5:00 AM 73 79 0 0 3.26 12.49
5/18/2022 6:00 AM 71 80 0 0 1.72 12.47
5/18/2022 7:00 AM 71 81 0.11 0 0.24 12.48
5/18/2022 8:00 AM 73 76 0.84 0 1.97 12.57
5/18/2022 9:00 AM 77 63 1.55 0 2.82 13.06
5/18/2022 10:00 AM 80 56 2.04 0 2.58 13.04
5/18/2022 11:00 AM 83 49 2.6 0 2.53 13.02
5/18/2022 12:00 PM 88 35 2.87 0 3.84 12.98
5/18/2022 1:00 PM 91 29 2.97 0 3.98 12.92
5/18/2022 2:00 PM 96 20 2.92 0 3.87 12.87
5/18/2022 3:00 PM 99 15 2.68 0 3.82 12.83
5/18/2022 4:00 PM 100 13 2.24 0 4.13 12.83
5/18/2022 5:00 PM 101 12 1.67 0 3.84 12.81
5/18/2022 6:00 PM 100 12 0.72 0 3.88 12.7
5/18/2022 7:00 PM 97 14 0.21 0 3.19 12.65
5/18/2022 8:00 PM 94 17 0.02 0 3.18 12.61
5/18/2022 9:00 PM 91 21 0 0 3.77 12.6
5/18/2022 10:00 PM 88 33 0 0 4.29 12.59
5/18/2022 11:00 PM 84 52 0 0 4.43 12.57
Data Summary 85 45 23.44 0.00 3.24 12.70